Weather History for Ladysmith, WI

Change the Weather History Date:

Wednesday, September 11, 2013

  Actual Average (KRPD) Record (KRPD)
Temperature  
Mean Temperature 68 °F -  
Max Temperature 82 °F 71 °F 89 °F (2005)
Min Temperature 55 °F 49 °F 39 °F (1999)
Cooling Degree Days 4    
Growing Degree Days 18 (Base 50)    
Moisture  
Dew Point 58 °F    
Average Humidity 75    
Maximum Humidity 97    
Minimum Humidity 40    
Precipitation  
Precipitation 0.00 in - - ()
Sea Level Pressure  
Sea Level Pressure 30.02 in    
Wind  
Wind Speed 6 mph (West)    
Max Wind Speed 17 mph    
Max Gust Speed 23 mph    
Visibility 9 miles    
Events      
Averages and records for this station are not official NWS values.
T = Trace of Precipitation, MM = Missing Value Source: NWS Daily Summary

Daily Weather History Graph

Daily Weather History Graph

Search for Another Location

Airport:

Trip Planner

Search our weather history database for the weather conditions in past years. The results will help you decide how hot, cold, wet, or windy it might be!

Date:

Astronomy

Sep. 11, 2013 Rise Set
Actual Time 6:37 AM CDT 7:22 PM CDT
Civil Twilight 6:07 AM CDT 7:52 PM CDT
Nautical Twilight 5:32 AM CDT 8:27 PM CDT
Astronomical Twilight 4:55 AM CDT 9:04 PM CDT
Moon 1:25 PM CDT (9/11) 10:59 PM CDT (9/11)
Length of Visible Light 13h 44m
Length of Day
12h 44m
Waxing Crescent, 39% of the Moon is Illuminated
Sep 11
Waxing Crescent
Sep 12
First Quarter
Sep 19
Full
Sep 26
Last Quarter
Oct 4
New

Hourly Weather History & Observations

Time (CDT) Temp. Heat Index Dew Point Humidity Pressure Visibility Wind Dir Wind Speed Gust Speed Precip Events Conditions
12:15 AM 64.4 °F - 62.6 °F 94% 29.98 in 10.0 mi WSW 3.5 mph - N/A   Clear
12:35 AM 64.4 °F - 62.4 °F 93% 29.98 in 10.0 mi WSW 3.5 mph - N/A   Clear
12:55 AM 63.7 °F - 61.5 °F 93% 29.99 in 10.0 mi WSW 3.5 mph - N/A   Clear
1:15 AM 64.0 °F - 61.2 °F 90% 29.99 in 10.0 mi WSW 5.8 mph - N/A   Clear
1:35 AM 63.9 °F - 60.8 °F 90% 30.00 in 10.0 mi West 3.5 mph - N/A   Clear
1:55 AM 63.5 °F - 60.4 °F 90% 30.00 in 10.0 mi WSW 4.6 mph - N/A   Clear
2:15 AM 63.0 °F - 59.9 °F 90% 30.00 in 10.0 mi WSW 3.5 mph - N/A   Clear
2:35 AM 62.8 °F - 59.9 °F 90% 30.00 in 10.0 mi WSW 3.5 mph - N/A   Clear
2:55 AM 62.4 °F - 59.4 °F 90% 30.00 in 10.0 mi WSW 3.5 mph - N/A   Clear
3:15 AM 61.7 °F - 59.4 °F 92% 30.01 in 10.0 mi West 3.5 mph - N/A   Clear
3:35 AM 61.7 °F - 59.7 °F 93% 30.01 in 10.0 mi WNW 4.6 mph - N/A   Clear
3:55 AM 61.3 °F - 59.4 °F 93% 30.00 in 10.0 mi WNW 4.6 mph - N/A   Clear
4:15 AM 61.0 °F - 59.2 °F 94% 30.01 in 10.0 mi West 3.5 mph - N/A   Clear
4:35 AM 60.8 °F - 59.0 °F 94% 30.02 in 10.0 mi West 5.8 mph - N/A   Clear
4:55 AM 61.0 °F - 59.7 °F 96% 30.01 in 10.0 mi West 3.5 mph - N/A   Clear
5:15 AM 61.3 °F - 59.9 °F 95% 30.02 in 10.0 mi West 4.6 mph - N/A   Clear
5:35 AM 59.9 °F - 58.5 °F 95% 30.03 in 10.0 mi West 3.5 mph - N/A   Clear
5:55 AM 58.3 °F - 57.2 °F 96% 30.03 in 7.0 mi SSW 3.5 mph - N/A   Clear
6:15 AM 58.6 °F - 57.6 °F 96% 30.04 in 5.0 mi Calm Calm - N/A   Clear
6:35 AM 58.8 °F - 57.7 °F 96% 30.04 in 3.0 mi Calm Calm - N/A   Clear
6:55 AM 58.3 °F - 57.4 °F 97% 30.05 in 3.0 mi Calm Calm - N/A   Clear
7:15 AM 57.7 °F - 56.8 °F 97% 30.04 in 1.5 mi South 3.5 mph - N/A   Mist
7:35 AM 57.2 °F - 56.3 °F 97% 30.04 in 1.5 mi South 3.5 mph - N/A   Mist
7:55 AM 59.4 °F - 58.5 °F 97% 30.05 in 4.0 mi Calm Calm - N/A   Clear
8:15 AM 60.8 °F - 59.9 °F 97% 30.04 in 7.0 mi South 4.6 mph - N/A   Clear
8:35 AM 62.4 °F - 61.5 °F 97% 30.04 in 10.0 mi South 5.8 mph - N/A   Clear
8:55 AM 65.1 °F - 62.1 °F 90% 30.03 in 10.0 mi SSW 5.8 mph - N/A   Clear
9:15 AM 66.9 °F - 62.1 °F 84% 30.03 in 10.0 mi SSW 5.8 mph - N/A   Clear
9:35 AM 68.7 °F - 63.1 °F 82% 30.03 in 10.0 mi South 4.6 mph - N/A   Clear
9:55 AM 70.0 °F - 62.6 °F 77% 30.03 in 10.0 mi SSW 9.2 mph - N/A   Clear
10:15 AM 71.1 °F - 62.1 °F 73% 30.02 in 10.0 mi SSW 8.1 mph - N/A   Clear
10:35 AM 72.7 °F - 61.9 °F 69% 30.02 in 10.0 mi SW 8.1 mph - N/A   Clear
10:55 AM 73.6 °F - 61.7 °F 66% 30.02 in 10.0 mi WSW 9.2 mph - N/A   Scattered Clouds
11:15 AM 74.3 °F - 62.1 °F 65% 30.02 in 10.0 mi WSW 8.1 mph - N/A   Scattered Clouds
11:35 AM 75.7 °F - 61.5 °F 61% 30.02 in 10.0 mi WSW 12.7 mph - N/A   Mostly Cloudy
11:55 AM 76.8 °F - 62.2 °F 61% 30.01 in 10.0 mi SW 10.4 mph - N/A   Overcast
12:15 PM 77.7 °F - 62.1 °F 58% 30.00 in 10.0 mi WSW 10.4 mph - N/A   Mostly Cloudy
12:35 PM 78.8 °F - 61.5 °F 55% 30.00 in 10.0 mi WSW 10.4 mph 17.3 mph N/A   Scattered Clouds
12:55 PM 80.1 °F 81.0 °F 60.4 °F 51% 30.00 in 10.0 mi WSW 11.5 mph 17.3 mph N/A   Scattered Clouds
1:15 PM 80.1 °F 80.7 °F 58.6 °F 48% 30.00 in 10.0 mi West 12.7 mph 18.4 mph N/A   Scattered Clouds
1:35 PM 79.9 °F - 55.8 °F 43% 30.00 in 10.0 mi West 17.3 mph - N/A   Scattered Clouds
1:55 PM 82.2 °F 81.8 °F 56.3 °F 41% 29.99 in 10.0 mi West 13.8 mph 23.0 mph N/A   Scattered Clouds
2:15 PM 80.1 °F 80.1 °F 54.9 °F 42% 29.99 in 10.0 mi West 17.3 mph 23.0 mph N/A   Clear
2:35 PM 82.6 °F 82.0 °F 55.8 °F 40% 29.99 in 10.0 mi West 16.1 mph - N/A   Mostly Cloudy
2:55 PM 78.1 °F - 59.2 °F 52% 30.00 in 10.0 mi WNW 13.8 mph 20.7 mph N/A   Overcast
3:15 PM 77.5 °F - 60.3 °F 55% 30.00 in 10.0 mi NW 12.7 mph 20.7 mph N/A   Mostly Cloudy
3:35 PM 78.3 °F - 60.8 °F 55% 30.00 in 10.0 mi NW 15.0 mph 20.7 mph N/A   Mostly Cloudy
3:55 PM 78.8 °F - 57.7 °F 48% 30.01 in 10.0 mi NW 15.0 mph 20.7 mph N/A   Mostly Cloudy
4:15 PM 78.8 °F - 55.8 °F 45% 30.01 in 10.0 mi WNW 15.0 mph 20.7 mph N/A   Scattered Clouds
4:35 PM 77.2 °F - 54.3 °F 45% 30.01 in 10.0 mi NW 16.1 mph 19.6 mph N/A   Clear
4:55 PM 77.4 °F - 53.6 °F 44% 30.02 in 10.0 mi NW 15.0 mph 21.9 mph N/A   Clear
5:15 PM 76.6 °F - 52.3 °F 43% 30.02 in 10.0 mi NW 13.8 mph - N/A   Clear
5:35 PM 76.1 °F - 51.6 °F 42% 30.03 in 10.0 mi NW 10.4 mph - N/A   Clear
5:55 PM 75.2 °F - 52.9 °F 46% 30.03 in 10.0 mi NNW 9.2 mph - N/A   Clear
6:15 PM 74.3 °F - 52.2 °F 46% 30.04 in 10.0 mi NW 10.4 mph - N/A   Clear
6:35 PM 72.9 °F - 51.8 °F 47% 30.03 in 10.0 mi NW 8.1 mph - N/A   Clear
6:55 PM 71.1 °F - 51.6 °F 50% 30.03 in 10.0 mi NNW 6.9 mph - N/A   Clear
7:15 PM 69.8 °F - 51.6 °F 52% 30.03 in 10.0 mi NNW 4.6 mph - N/A   Clear
7:35 PM 64.6 °F - 54.3 °F 69% 30.03 in 10.0 mi Calm Calm - N/A   Clear
7:55 PM 61.7 °F - 54.7 °F 78% 30.03 in 10.0 mi Calm Calm - N/A   Clear
8:15 PM 60.3 °F - 54.0 °F 80% 30.03 in 10.0 mi Calm Calm - N/A   Clear
8:35 PM 59.9 °F - 54.1 °F 81% 30.02 in 10.0 mi Calm Calm - N/A   Clear
8:55 PM 57.4 °F - 53.6 °F 87% 30.03 in 10.0 mi Calm Calm - N/A   Clear
9:15 PM 56.7 °F - 53.1 °F 88% 30.03 in 10.0 mi Calm Calm - N/A   Clear
9:35 PM 57.6 °F - 54.0 °F 88% 30.02 in 10.0 mi Calm Calm - N/A   Clear
9:55 PM 56.3 °F - 53.6 °F 91% 30.02 in 10.0 mi Calm Calm - N/A   Clear
10:15 PM 56.5 °F - 53.8 °F 91% 30.02 in 10.0 mi Calm Calm - N/A   Clear
10:35 PM 55.0 °F - 52.2 °F 90% 30.02 in 10.0 mi Calm Calm - N/A   Scattered Clouds
10:55 PM 55.8 °F - 53.6 °F 92% 30.02 in 10.0 mi Calm Calm - N/A   Mostly Cloudy
11:15 PM 61.5 °F - 54.5 °F 78% 30.04 in 10.0 mi North 10.4 mph - N/A   Overcast
11:35 PM 61.7 °F - 54.7 °F 78% 30.04 in 10.0 mi NNE 8.1 mph - N/A   Overcast
11:55 PM 60.4 °F - 54.7 °F 81% 30.04 in 10.0 mi NNE 4.6 mph - N/A   Mostly Cloudy